Time;durP1;ratioP1;P1;durP2;ratioP2;P2;SDS_P1;SDS_P2;PMS_P1;PMS_P2;Temp;Humidity;BMP_temperature;BMP_pressure;BME280_temperature;BME280_humidity;BME280_pressure;Samples;Min_cycle;Max_cycle;Signal;HPM_P1;HPM_P2
2021/03/20 00:32:15;;;;;;;5.40;3.40;;;;;;;-2.72;71.66;100730.47;1789002;80;25448;-55
2021/03/20 00:34:41;;;;;;;6.47;3.90;;;;;;;-2.75;71.79;100724.27;1798723;79;25425;-53
2021/03/20 00:37:08;;;;;;;8.68;4.28;;;;;;;-2.75;71.84;100730.08;1791213;80;25324;-55
2021/03/20 00:39:34;;;;;;;7.28;3.52;;;;;;;-2.76;72.01;100729.25;1798747;79;25256;-52
2021/03/20 00:42:01;;;;;;;7.53;3.95;;;;;;;-2.76;72.09;100727.92;1798713;79;25895;-55
2021/03/20 00:44:28;;;;;;;6.03;3.50;;;;;;;-2.77;72.25;100726.31;1791073;80;25453;-52
2021/03/20 00:46:54;;;;;;;11.03;3.92;;;;;;;-2.77;72.05;100728.96;1798749;79;25268;-51
2021/03/20 00:49:20;;;;;;;6.78;3.92;;;;;;;-2.76;72.18;100723.95;1798687;79;25461;-52
2021/03/20 00:51:47;;;;;;;10.32;4.47;;;;;;;-2.75;72.25;100722.94;1791278;80;25450;-52
2021/03/20 00:54:14;;;;;;;8.00;3.80;;;;;;;-2.73;72.24;100727.51;1798811;79;25759;-55
2021/03/20 00:56:40;;;;;;;8.65;4.10;;;;;;;-2.72;72.26;100729.14;1798631;79;25808;-51
2021/03/20 00:59:06;;;;;;;8.80;4.03;;;;;;;-2.71;72.40;100732.08;1791157;80;25044;-51
2021/03/20 01:01:32;;;;;;;7.78;4.28;;;;;;;-2.70;72.46;100730.27;1798691;79;25360;-51
2021/03/20 01:03:59;;;;;;;8.68;3.87;;;;;;;-2.69;72.50;100730.05;1798774;79;25290;-52
2021/03/20 01:06:28;;;;;;;8.95;4.05;;;;;;;-2.67;72.44;100733.30;1791162;80;25690;-51
2021/03/20 01:08:57;;;;;;;7.23;4.17;;;;;;;-2.65;72.60;100722.50;1798915;79;25264;-53
2021/03/20 01:11:28;;;;;;;7.97;4.33;;;;;;;-2.66;72.52;100729.61;1798907;79;25248;-54
2021/03/20 01:13:56;;;;;;;9.70;4.35;;;;;;;-2.66;72.54;100730.94;1791329;80;25460;-56
2021/03/20 01:16:24;;;;;;;9.08;3.83;;;;;;;-2.68;72.58;100729.02;1798961;79;25455;-53
2021/03/20 01:18:52;;;;;;;6.60;3.83;;;;;;;-2.67;72.66;100733.81;1798704;79;25969;-52
2021/03/20 01:21:20;;;;;;;11.68;5.12;;;;;;;-2.66;72.71;100729.61;1799112;79;25465;-52
2021/03/20 09:57:05;;;;;;;4.78;3.12;;;;;;;11.96;38.48;101092.83;1653967;78;1256782;-61
2021/03/20 09:59:37;;;;;;;6.10;3.35;;;;;;;11.63;38.77;101096.89;1616895;87;27394;-61
2021/03/20 10:02:18;;;;;;;8.23;3.70;;;;;;;11.43;38.76;101095.87;1614172;87;25691;-61
2021/03/20 10:05:05;;;;;;;7.03;3.52;;;;;;;11.10;38.68;101097.14;1596088;88;25653;-61
2021/03/20 10:07:35;;;;;;;5.70;2.85;;;;;;;10.68;38.75;101096.10;1616396;88;25419;-62
2021/03/20 10:10:17;;;;;;;7.03;3.25;;;;;;;10.52;38.77;101098.17;1616230;88;26821;-61
2021/03/20 10:12:52;;;;;;;7.22;3.30;;;;;;;10.24;38.56;101096.01;1643063;87;25612;-62
2021/03/20 10:15:34;;;;;;;6.65;3.40;;;;;;;10.36;39.36;101098.34;1640718;85;25571;-62
2021/03/20 10:18:13;;;;;;;8.73;3.22;;;;;;;10.29;37.87;101084.34;1625120;86;25503;-61
2021/03/20 10:20:48;;;;;;;11.53;4.45;;;;;;;9.88;37.77;101095.02;1656518;86;25657;-61
2021/03/20 10:23:44;;;;;;;7.03;3.20;;;;;;;9.77;38.48;101096.19;1648220;86;25976;-61
2021/03/20 10:26:28;;;;;;;7.37;2.90;;;;;;;9.96;38.61;101094.95;1612739;87;25628;-60
2021/03/20 10:29:08;;;;;;;5.65;3.25;;;;;;;10.53;38.52;101091.12;1611367;87;25635;-60
2021/03/20 10:31:46;;;;;;;6.95;2.95;;;;;;;10.63;37.50;101096.97;1607778;87;25661;-61
2021/03/20 10:34:25;;;;;;;4.70;2.60;;;;;;;10.56;36.98;101090.55;1851084;75;34798;-61
2021/03/20 10:37:13;;;;;;;6.15;3.37;;;;;;;10.55;36.94;101100.30;1842413;77;25609;-61
2021/03/20 10:39:45;;;;;;;6.28;3.47;;;;;;;10.78;36.79;101098.13;1833699;77;25747;-61
2021/03/20 10:42:31;;;;;;;4.85;3.27;;;;;;;11.18;37.15;101092.44;1834300;77;25613;-61
2021/03/20 10:45:05;;;;;;;7.17;3.72;;;;;;;11.35;36.46;101088.64;1829001;77;25569;-60
2021/03/20 10:47:36;;;;;;;9.40;4.10;;;;;;;11.39;36.81;101093.74;1836972;77;25565;-61
2021/03/20 10:50:33;;;;;;;10.40;4.47;;;;;;;11.24;36.34;101089.09;1841649;76;25693;-61
2021/03/20 10:53:22;;;;;;;7.78;3.55;;;;;;;10.99;35.86;101087.02;1839765;77;25810;-60
2021/03/20 10:55:53;;;;;;;8.20;4.72;;;;;;;10.78;35.91;101101.38;1839313;77;25554;-61
2021/03/20 10:58:42;;;;;;;9.10;3.98;;;;;;;10.69;36.11;101092.28;1836575;77;25572;-62
2021/03/20 11:01:15;;;;;;;7.95;4.40;;;;;;;10.51;35.81;101091.96;1694637;82;26607;-61
2021/03/20 11:03:44;;;;;;;7.97;4.58;;;;;;;10.26;36.02;101097.08;1706184;83;25577;-61
2021/03/20 11:06:16;;;;;;;9.15;3.75;;;;;;;10.00;35.90;101096.54;1715808;83;25722;-61
2021/03/20 11:08:46;;;;;;;6.83;3.77;;;;;;;9.73;36.00;101091.89;1715871;83;25670;-61
2021/03/20 11:11:31;;;;;;;7.15;3.33;;;;;;;9.58;36.10;101094.73;1888323;74;34713;-61
2021/03/20 11:14:15;;;;;;;10.05;5.00;;;;;;;9.35;35.65;101085.47;1864191;77;25696;-62
2021/03/20 11:16:53;;;;;;;7.78;3.80;;;;;;;9.46;37.00;101086.98;1796045;79;26154;-61
2021/03/20 11:19:39;;;;;;;7.17;3.92;;;;;;;9.68;36.21;101081.69;1785821;78;25793;-62
2021/03/20 11:22:32;;;;;;;11.68;4.62;;;;;;;9.78;36.36;101073.49;1782290;80;25605;-60
2021/03/20 11:25:04;;;;;;;7.30;3.40;;;;;;;10.12;36.53;101076.67;1783581;80;26162;-61
2021/03/20 11:27:38;;;;;;;6.40;3.30;;;;;;;10.39;35.92;101072.09;1758817;81;25616;-63
2021/03/20 11:30:16;;;;;;;6.35;3.33;;;;;;;10.16;35.08;101085.02;1796957;78;25767;-61
2021/03/20 11:32:45;;;;;;;7.85;3.90;;;;;;;9.72;34.91;101080.84;1783071;80;25629;-61
2021/03/20 11:35:32;;;;;;;8.70;4.55;;;;;;;9.22;34.72;101076.64;1766354;80;25313;-60
2021/03/20 11:38:00;;;;;;;7.55;4.72;;;;;;;8.78;34.95;101070.97;1762244;81;25139;-62
2021/03/20 11:40:42;;;;;;;7.50;3.60;;;;;;;8.31;35.25;101068.16;1762339;81;25283;-62
2021/03/20 11:43:26;;;;;;;13.60;6.03;;;;;;;8.01;35.39;101062.30;1760939;81;25800;-61
2021/03/20 11:46:16;;;;;;;8.80;3.75;;;;;;;7.77;35.10;101071.50;1761992;81;25496;-60
2021/03/20 11:48:46;;;;;;;;;;;;;;;7.33;34.99;101066.11;1707757;84;25695;-63
2021/03/20 11:51:17;;;;;;;4.72;2.77;;;;;;;7.05;35.48;101072.27;1720510;83;25637;-61
2021/03/20 11:53:47;;;;;;;5.87;3.42;;;;;;;7.13;35.88;101076.84;1769521;81;25343;-62
2021/03/20 11:56:25;;;;;;;8.38;3.27;;;;;;;7.00;35.86;101076.80;1692049;84;26632;-60
2021/03/20 11:59:05;;;;;;;5.30;3.50;;;;;;;6.80;35.62;101068.17;1770000;81;26472;-61
2021/03/20 12:01:49;;;;;;;10.35;3.80;;;;;;;6.44;35.81;101073.41;1847949;76;34907;-60
2021/03/20 12:04:31;;;;;;;8.53;3.45;;;;;;;6.14;35.99;101066.80;1750637;82;25528;-66
2021/03/20 12:07:28;;;;;;;6.85;3.60;;;;;;;5.93;36.58;101063.16;1754142;81;25929;-66
2021/03/20 12:09:56;;;;;;;5.75;2.77;;;;;;;5.77;36.95;101064.91;1750570;82;25542;-66
2021/03/20 12:12:53;;;;;;;6.50;3.25;;;;;;;5.52;36.76;101057.50;1698732;81;25705;-65
2021/03/20 12:15:34;;;;;;;6.95;3.20;;;;;;;5.27;36.73;101056.74;1750451;82;25518;-66
2021/03/20 12:18:15;;;;;;;7.20;4.53;;;;;;;5.04;36.83;101051.98;1754128;81;25637;-64
2021/03/20 12:20:43;;;;;;;8.35;4.80;;;;;;;4.90;37.54;101044.84;1749754;82;25726;-67
2021/03/20 12:23:24;;;;;;;5.75;3.62;;;;;;;4.85;37.68;101036.75;1748850;80;25560;-65
2021/03/20 12:25:56;;;;;;;8.50;3.58;;;;;;;4.76;38.23;101037.73;1767808;78;25652;-65
2021/03/20 12:28:43;;;;;;;13.30;3.80;;;;;;;4.68;38.26;101038.17;1751881;81;25621;-65
2021/03/20 12:31:23;;;;;;;6.58;3.95;;;;;;;4.61;38.75;101034.88;1727856;80;25212;-65
2021/03/20 12:34:13;;;;;;;6.92;3.05;;;;;;;4.66;39.10;101032.26;1746015;81;25707;-65
2021/03/20 12:36:49;;;;;;;7.17;3.37;;;;;;;4.66;38.92;101027.70;1752756;81;25531;-65
2021/03/20 12:39:23;;;;;;;7.03;3.75;;;;;;;4.68;39.25;101029.63;1754865;81;25665;-66
2021/03/20 12:41:56;;;;;;;5.80;3.90;;;;;;;4.80;39.10;101032.16;1750210;82;25564;-65
2021/03/20 12:44:32;;;;;;;10.13;4.53;;;;;;;4.98;39.36;101026.16;1753926;81;26171;-65
2021/03/20 12:47:02;;;;;;;8.25;4.35;;;;;;;5.35;39.07;101034.28;1750520;82;25795;-65
2021/03/20 12:49:33;;;;;;;9.35;3.30;;;;;;;5.50;38.72;101042.99;1753531;81;25530;-65
2021/03/20 12:52:21;;;;;;;8.38;3.30;;;;;;;5.37;38.25;101042.88;1750463;82;25593;-65
2021/03/20 12:54:51;;;;;;;6.30;3.22;;;;;;;5.19;38.02;101040.56;1753895;81;26154;-66
2021/03/20 12:57:33;;;;;;;7.10;3.98;;;;;;;4.96;37.95;101041.70;1750288;82;25389;-65
2021/03/20 13:00:03;;;;;;;5.87;3.35;;;;;;;4.84;38.33;101031.92;1753805;81;26619;-65
2021/03/20 13:02:29;;;;;;;7.08;2.65;;;;;;;4.72;37.74;101037.97;1750197;81;25633;-66
2021/03/20 13:04:56;;;;;;;6.42;3.20;;;;;;;4.57;37.60;101042.61;1753623;81;25549;-65
2021/03/20 13:07:23;;;;;;;6.55;3.20;;;;;;;4.61;37.95;101039.70;1750419;81;25554;-66
2021/03/20 13:09:51;;;;;;;7.53;3.17;;;;;;;4.51;37.67;101042.27;1753950;81;25740;-65
2021/03/20 13:12:18;;;;;;;6.85;3.00;;;;;;;4.39;37.91;101037.06;1749876;82;26851;-65
2021/03/20 13:14:46;;;;;;;7.92;2.98;;;;;;;4.30;37.94;101035.31;1753393;81;25589;-65
2021/03/20 13:17:14;;;;;;;5.37;3.00;;;;;;;4.25;37.93;101029.89;1750088;81;25482;-64
2021/03/20 13:19:40;;;;;;;6.70;2.95;;;;;;;4.14;37.63;101026.83;1756272;80;25757;-66
2021/03/20 13:22:08;;;;;;;12.35;3.45;;;;;;;4.13;38.17;101013.14;1765571;80;25764;-67
2021/03/20 13:24:35;;;;;;;6.03;3.25;;;;;;;4.18;38.17;101021.78;1785416;80;25706;-66
2021/03/20 13:27:02;;;;;;;7.65;3.25;;;;;;;4.46;39.04;101012.73;1760807;81;25417;-66
2021/03/20 13:29:28;;;;;;;6.72;3.10;;;;;;;5.11;39.34;101008.84;1761169;81;25566;-66
2021/03/20 13:31:55;;;;;;;9.65;3.52;;;;;;;5.60;38.04;101006.84;1761081;81;25598;-66
2021/03/20 13:34:22;;;;;;;5.58;3.70;;;;;;;5.84;37.76;101004.28;1760176;79;25714;-66
2021/03/20 13:36:49;;;;;;;6.30;3.37;;;;;;;6.31;38.11;101011.00;1746577;80;25703;-65
2021/03/20 13:39:16;;;;;;;6.17;3.62;;;;;;;6.80;37.08;101014.39;1746304;81;25280;-63
2021/03/20 13:41:43;;;;;;;7.42;3.80;;;;;;;6.63;36.13;101021.34;1749766;80;25531;-62
2021/03/20 13:44:10;;;;;;;8.95;4.35;;;;;;;6.26;35.61;101013.66;1785201;80;25518;-63
2021/03/20 13:46:37;;;;;;;14.15;6.55;;;;;;;5.93;35.85;101014.83;1754062;79;25576;-62
2021/03/20 13:49:05;;;;;;;8.08;3.80;;;;;;;5.57;35.98;101016.74;1770450;80;25825;-62
2021/03/20 13:51:35;;;;;;;8.73;4.17;;;;;;;5.30;36.14;101010.63;1785192;80;25581;-62
2021/03/20 13:54:03;;;;;;;8.30;4.58;;;;;;;4.98;35.89;101016.24;1785136;80;25549;-62
2021/03/20 13:56:31;;;;;;;8.50;3.98;;;;;;;4.78;36.41;101011.48;1785051;80;25529;-63
2021/03/20 13:58:59;;;;;;;7.22;4.42;;;;;;;4.59;36.75;101016.91;1778183;80;25449;-63
2021/03/20 14:01:26;;;;;;;10.20;4.50;;;;;;;4.43;37.17;101015.94;1797101;79;27130;-63
2021/03/20 14:03:52;;;;;;;8.25;4.20;;;;;;;4.27;36.96;101014.41;1781907;79;25608;-63
2021/03/20 14:06:27;;;;;;;9.73;5.35;;;;;;;4.10;37.42;101006.43;1784454;79;25551;-63
2021/03/20 14:08:55;;;;;;;7.42;3.55;;;;;;;3.98;37.97;101006.25;1796780;79;25500;-63
2021/03/20 14:11:22;;;;;;;7.53;3.62;;;;;;;4.26;39.28;100992.69;1726220;82;25463;-63
2021/03/20 14:13:49;;;;;;;9.15;3.85;;;;;;;4.88;38.65;100989.87;1758932;81;25816;-62
2021/03/20 14:16:16;;;;;;;8.53;4.33;;;;;;;5.04;38.08;100978.23;1768219;80;25549;-62
2021/03/20 14:18:43;;;;;;;5.28;3.62;;;;;;;5.06;37.90;100978.78;1790035;80;25514;-63
2021/03/20 14:21:14;;;;;;;7.45;3.45;;;;;;;5.37;37.55;100981.17;1790147;80;25422;-63
2021/03/20 14:23:39;;;;;;;;;;;;;;;5.70;37.28;100987.83;1792625;80;25584;-63
2021/03/20 14:26:05;;;;;;;5.80;3.30;;;;;;;5.97;37.73;100988.55;1763195;79;25718;-63
2021/03/20 14:28:32;;;;;;;7.15;3.47;;;;;;;6.49;37.61;100985.55;1714119;82;25490;-64
2021/03/20 14:31:02;;;;;;;8.20;4.87;;;;;;;6.86;37.02;100985.08;1749301;81;25628;-63
2021/03/20 14:33:31;;;;;;;5.62;3.30;;;;;;;6.85;36.30;100984.82;1765324;81;25596;-63
2021/03/20 14:36:03;;;;;;;4.75;2.87;;;;;;;6.43;33.35;100983.90;1737078;82;25568;-63
2021/03/20 14:38:31;;;;;;;5.87;3.00;;;;;;;5.85;32.21;100971.81;1758714;81;25813;-64
2021/03/20 14:40:59;;;;;;;5.28;2.70;;;;;;;5.42;33.08;100965.11;1744285;81;25659;-63
2021/03/20 14:43:26;;;;;;;13.13;5.60;;;;;;;5.08;33.72;100959.22;1737045;81;25337;-64
2021/03/20 14:45:54;;;;;;;6.35;3.27;;;;;;;4.81;33.97;100972.11;1757046;81;25257;-64
2021/03/20 14:48:26;;;;;;;6.03;3.87;;;;;;;4.64;33.71;100962.83;1765886;81;25535;-64
2021/03/20 14:50:52;;;;;;;6.65;3.45;;;;;;;4.40;34.74;100955.62;1765529;81;25796;-65
2021/03/20 14:53:20;;;;;;;7.25;3.77;;;;;;;4.24;35.09;100952.48;1765551;81;25771;-64
2021/03/20 14:55:48;;;;;;;6.72;3.60;;;;;;;4.13;34.21;100960.93;1753659;81;25684;-64
2021/03/20 14:58:17;;;;;;;4.85;3.25;;;;;;;3.76;34.41;100953.48;1743375;81;25665;-63
2021/03/20 15:00:48;;;;;;;5.22;3.00;;;;;;;3.41;34.30;100949.80;1752320;81;25547;-63
2021/03/20 15:03:16;;;;;;;7.15;3.20;;;;;;;2.94;33.84;100943.70;1730949;82;25924;-63
2021/03/20 15:05:44;;;;;;;7.78;3.83;;;;;;;2.66;35.12;100945.91;1737133;79;25688;-64
2021/03/20 15:08:15;;;;;;;29.95;14.33;;;;;;;2.39;35.27;100945.14;1730219;80;25732;-65
2021/03/20 15:10:46;;;;;;;7.08;3.52;;;;;;;2.22;35.89;100950.42;1748495;79;25749;-65
2021/03/20 15:13:13;;;;;;;7.75;4.10;;;;;;;2.09;35.82;100943.22;1739926;79;25602;-65
2021/03/20 15:15:39;;;;;;;6.20;3.58;;;;;;;1.95;36.45;100942.67;1730166;82;25839;-64
2021/03/20 15:18:10;;;;;;;7.87;4.03;;;;;;;1.90;36.82;100950.04;1729761;82;25643;-64
2021/03/20 15:20:39;;;;;;;8.55;4.20;;;;;;;1.80;36.88;100942.63;1730308;82;25545;-64
2021/03/20 15:23:05;;;;;;;4.83;3.25;;;;;;;1.75;37.16;100941.72;1730566;82;25670;-65
2021/03/20 15:25:32;;;;;;;7.03;3.00;;;;;;;1.68;36.85;100941.84;1730112;82;25574;-62
2021/03/20 15:27:58;;;;;;;6.40;2.83;;;;;;;1.47;36.67;100928.59;1730188;82;25795;-64
2021/03/20 15:30:33;;;;;;;7.20;3.27;;;;;;;1.39;37.09;100928.93;1731151;82;25549;-65
2021/03/20 15:33:00;;;;;;;8.65;4.20;;;;;;;1.37;37.56;100927.02;1730461;82;25389;-65
2021/03/20 15:35:27;;;;;;;8.60;3.33;;;;;;;1.36;37.66;100920.06;1731232;82;25306;-65
2021/03/20 15:37:54;;;;;;;7.05;3.87;;;;;;;1.28;37.33;100921.23;1731286;82;25307;-64
2021/03/20 15:40:30;;;;;;;9.48;3.45;;;;;;;1.29;37.75;100925.50;1731122;82;27049;-65
2021/03/20 15:43:00;;;;;;;7.58;3.83;;;;;;;1.28;37.95;100920.70;1735367;79;25584;-65
2021/03/20 15:45:30;;;;;;;7.33;4.05;;;;;;;1.27;37.84;100923.06;1761676;79;25601;-65
2021/03/20 15:47:57;;;;;;;9.70;4.50;;;;;;;1.25;37.78;100917.16;1751628;81;25648;-66
2021/03/20 15:50:31;;;;;;;7.28;4.10;;;;;;;1.24;37.93;100917.39;1736385;81;25578;-65
2021/03/20 15:52:58;;;;;;;9.80;4.08;;;;;;;1.24;38.04;100922.22;1739211;81;25838;-65
2021/03/20 15:55:30;;;;;;;6.37;4.35;;;;;;;1.29;37.94;100921.50;1776071;80;25199;-66
2021/03/20 15:57:59;;;;;;;6.80;3.72;;;;;;;1.33;38.04;100916.02;1755588;81;25451;-65
2021/03/20 16:00:26;;;;;;;6.92;3.98;;;;;;;1.36;38.04;100916.86;1783089;80;25455;-64
2021/03/20 16:02:53;;;;;;;7.97;4.40;;;;;;;1.38;37.43;100916.13;1758591;81;25301;-64
2021/03/20 16:05:21;;;;;;;5.72;3.55;;;;;;;1.38;37.51;100913.47;1767089;81;26730;-64
2021/03/20 16:07:48;;;;;;;7.00;4.00;;;;;;;1.33;37.26;100901.86;1767105;81;25310;-62
2021/03/20 16:10:26;;;;;;;7.20;3.52;;;;;;;1.27;36.04;100905.74;1766918;81;25477;-64
2021/03/20 16:12:55;;;;;;;5.35;3.52;;;;;;;1.16;36.88;100903.06;1756796;81;25614;-63
2021/03/20 16:15:23;;;;;;;8.50;4.03;;;;;;;1.09;36.94;100903.18;1740839;81;25481;-64
2021/03/20 16:17:52;;;;;;;9.28;3.20;;;;;;;1.03;37.34;100906.25;1727935;83;25716;-64
2021/03/20 16:20:38;;;;;;;6.90;4.00;;;;;;;0.96;36.65;100903.42;1739758;81;25839;-64
2021/03/20 16:23:09;;;;;;;10.80;5.20;;;;;;;0.85;36.80;100905.84;1765837;80;25455;-64
2021/03/20 16:25:36;;;;;;;9.28;4.47;;;;;;;0.78;37.08;100909.63;1779697;80;25477;-64
2021/03/20 16:28:06;;;;;;;15.93;5.75;;;;;;;0.69;36.93;100907.30;1742654;82;25353;-64
2021/03/20 16:30:40;;;;;;;9.38;5.08;;;;;;;0.60;37.13;100916.66;1742674;82;25827;-64
2021/03/20 16:33:12;;;;;;;13.35;5.35;;;;;;;0.48;37.31;100913.95;1742399;82;25333;-64
2021/03/20 16:35:40;;;;;;;12.88;5.22;;;;;;;0.37;37.91;100908.06;1753866;81;25537;-64
2021/03/20 16:38:07;;;;;;;8.93;4.60;;;;;;;0.31;38.07;100911.11;1766839;81;25528;-64
2021/03/20 16:40:37;;;;;;;7.55;4.58;;;;;;;0.23;38.20;100910.62;1766647;81;25541;-63
2021/03/20 16:43:05;;;;;;;7.55;4.35;;;;;;;0.13;38.55;100908.48;1766980;81;25782;-62
2021/03/20 16:45:36;;;;;;;7.15;4.37;;;;;;;0.03;38.90;100907.67;1766765;81;25148;-63
2021/03/20 16:48:05;;;;;;;12.03;5.60;;;;;;;-0.05;39.35;100904.82;1766163;81;25480;-63
2021/03/20 16:50:31;;;;;;;9.70;5.80;;;;;;;-0.09;39.49;100907.61;1766955;81;25533;-63
2021/03/20 16:52:58;;;;;;;8.08;5.62;;;;;;;-0.16;39.79;100906.89;1766783;81;25590;-63
2021/03/20 16:55:27;;;;;;;10.75;5.53;;;;;;;-0.20;40.02;100906.52;1733227;81;25777;-64
2021/03/20 16:57:54;;;;;;;10.45;5.97;;;;;;;-0.26;40.01;100907.92;1767137;81;25593;-63
2021/03/20 17:00:30;;;;;;;10.08;5.20;;;;;;;-0.33;39.98;100901.87;1766887;81;25470;-64
2021/03/20 17:02:58;;;;;;;10.70;5.30;;;;;;;-0.42;40.09;100899.50;1753699;81;25535;-63
2021/03/20 17:05:26;;;;;;;10.88;5.03;;;;;;;-0.53;39.91;100893.58;1782856;80;25529;-63
2021/03/20 17:07:52;;;;;;;9.83;5.40;;;;;;;-0.63;40.31;100894.59;1782559;80;25703;-63
2021/03/20 17:10:22;;;;;;;25.37;10.58;;;;;;;-0.70;40.42;100903.95;1755163;81;25503;-64
2021/03/20 17:12:53;;;;;;;8.05;4.62;;;;;;;-0.78;40.58;100897.10;1755254;81;25550;-63
2021/03/20 17:15:23;;;;;;;9.75;5.08;;;;;;;-0.85;40.59;100893.70;1754981;81;25528;-64
2021/03/20 17:17:50;;;;;;;9.63;5.20;;;;;;;-0.90;40.93;100895.36;1765564;79;25543;-63
2021/03/20 17:20:26;;;;;;;9.10;5.33;;;;;;;-0.96;41.23;100893.07;1724935;83;26169;-63
2021/03/20 17:22:53;;;;;;;14.78;7.83;;;;;;;-0.99;41.28;100893.00;1724631;83;25492;-63
2021/03/20 17:25:23;;;;;;;11.63;6.10;;;;;;;-1.02;41.72;100888.13;1725069;83;25670;-64
2021/03/20 17:27:56;;;;;;;11.75;6.15;;;;;;;-1.07;41.38;100884.47;1725191;83;25555;-65
2021/03/20 17:30:26;;;;;;;14.18;6.55;;;;;;;-1.16;41.38;100878.13;1724882;83;25644;-64
2021/03/20 17:32:53;;;;;;;15.03;7.40;;;;;;;-1.22;41.43;100881.64;1724959;83;25703;-65
2021/03/20 17:35:20;;;;;;;13.48;6.17;;;;;;;-1.25;41.88;100887.90;1725066;83;25621;-63
2021/03/20 17:37:47;;;;;;;10.10;5.83;;;;;;;-1.29;42.00;100882.70;1725125;83;25678;-63
2021/03/20 17:40:17;;;;;;;11.38;6.42;;;;;;;-1.33;42.22;100883.65;1725294;83;25493;-63
2021/03/20 17:42:44;;;;;;;15.15;7.12;;;;;;;-1.36;42.40;100886.76;1725251;83;25578;-64
2021/03/20 17:45:15;;;;;;;11.10;6.10;;;;;;;-1.38;42.86;100877.68;1724903;83;25967;-64
2021/03/20 17:47:42;;;;;;;14.80;6.28;;;;;;;-1.42;42.90;100879.12;1733217;82;25589;-64
2021/03/20 17:50:14;;;;;;;15.70;6.15;;;;;;;-1.45;42.97;100874.76;1733325;82;25203;-64
2021/03/20 17:52:41;;;;;;;12.28;6.72;;;;;;;-1.48;43.30;100869.88;1732026;82;25526;-64
2021/03/20 17:55:10;;;;;;;12.53;6.50;;;;;;;-1.54;43.43;100868.91;1733310;82;25586;-65
2021/03/20 17:57:36;;;;;;;12.90;6.95;;;;;;;-1.56;43.82;100866.98;1733303;82;26702;-63
2021/03/20 18:00:06;;;;;;;17.10;6.95;;;;;;;-1.58;43.88;100857.11;1733847;81;25337;-62
2021/03/20 18:02:32;;;;;;;14.15;6.92;;;;;;;-1.61;44.06;100855.67;1744049;81;25779;-64
2021/03/20 18:05:00;;;;;;;13.35;6.47;;;;;;;-1.64;44.28;100851.32;1763673;81;25553;-63
2021/03/20 18:07:27;;;;;;;12.05;6.80;;;;;;;-1.68;44.45;100848.80;1782527;80;25534;-63
2021/03/20 18:09:54;;;;;;;11.90;6.25;;;;;;;-1.70;44.40;100845.04;1782538;80;25750;-63
2021/03/20 18:12:22;;;;;;;15.40;7.40;;;;;;;-1.74;44.98;100840.67;1755160;81;25558;-64
2021/03/20 18:14:50;;;;;;;13.30;7.03;;;;;;;-1.69;45.27;100849.30;1783014;80;25309;-64
2021/03/20 18:17:16;;;;;;;15.72;7.28;;;;;;;-1.69;45.27;100849.30;1755511;81;25320;-62
2021/03/20 18:19:43;;;;;;;12.60;6.67;;;;;;;-1.83;45.17;100827.35;1783054;80;25236;-63
2021/03/20 18:22:10;;;;;;;16.70;8.33;;;;;;;-1.85;45.51;100828.61;1755245;81;25807;-64
2021/03/20 18:24:36;;;;;;;14.53;6.55;;;;;;;-1.87;45.78;100824.84;1783013;80;25527;-63
2021/03/20 18:27:04;;;;;;;19.23;9.58;;;;;;;-1.91;46.81;100832.41;1755492;81;25480;-61
2021/03/20 18:29:31;;;;;;;19.05;8.33;;;;;;;-1.93;46.60;100830.46;1782857;80;26139;-59
2021/03/20 18:31:57;;;;;;;18.40;8.65;;;;;;;-1.96;46.79;100827.42;1755414;81;25266;-57
2021/03/20 18:34:24;;;;;;;17.23;8.30;;;;;;;-1.96;46.96;100830.08;1782999;80;26637;-60
2021/03/20 18:36:51;;;;;;;18.40;9.60;;;;;;;-1.99;47.20;100823.87;1755250;81;25785;-60
2021/03/20 18:39:19;;;;;;;16.48;7.90;;;;;;;-2.00;47.11;100822.27;1755490;81;25324;-61
2021/03/20 18:41:45;;;;;;;10.55;6.78;;;;;;;-2.03;47.18;100820.03;1782853;80;26162;-60
2021/03/20 18:44:12;;;;;;;12.82;7.15;;;;;;;-2.04;47.24;100822.36;1753399;81;25472;-60
2021/03/20 18:46:41;;;;;;;16.70;8.10;;;;;;;-2.08;47.61;100820.16;1735093;81;25721;-60
2021/03/20 18:49:07;;;;;;;13.20;7.22;;;;;;;-2.08;47.92;100821.98;1751895;81;25697;-58
2021/03/20 18:51:34;;;;;;;18.62;7.83;;;;;;;-2.11;47.89;100822.40;1749875;81;25500;-59
2021/03/20 18:54:02;;;;;;;14.95;7.65;;;;;;;-2.14;48.05;100823.65;1733721;82;25476;-59
2021/03/20 18:56:31;;;;;;;15.85;7.75;;;;;;;-2.16;48.06;100825.70;1733882;82;25541;-58
2021/03/20 18:58:59;;;;;;;15.25;8.03;;;;;;;-2.19;48.34;100827.45;1733748;82;28046;-60
2021/03/20 19:01:26;;;;;;;16.85;8.95;;;;;;;-2.20;48.54;100827.13;1733538;82;25624;-58
2021/03/20 19:03:53;;;;;;;15.15;8.65;;;;;;;-2.23;48.35;100822.28;1733771;81;25465;-58
2021/03/20 19:06:20;;;;;;;19.95;9.50;;;;;;;-2.25;48.67;100817.67;1733530;82;25517;-57
2021/03/20 19:08:53;;;;;;;18.17;8.73;;;;;;;-2.29;49.15;100815.16;1733846;82;25351;-60
2021/03/20 19:11:16;;;;;;;20.63;10.67;;;;;;;-2.32;49.04;100811.60;1733085;82;25805;-58
2021/03/20 19:13:43;;;;;;;21.48;10.88;;;;;;;-2.34;49.45;100803.05;1733624;82;25266;-58
2021/03/20 19:16:12;;;;;;;24.87;10.60;;;;;;;-2.35;49.28;100808.04;1733863;82;25449;-59
2021/03/20 19:18:41;;;;;;;24.00;12.18;;;;;;;-2.37;49.76;100815.39;1733835;82;25453;-59
2021/03/20 19:21:12;;;;;;;23.75;11.28;;;;;;;-2.40;49.77;100811.34;1702618;82;25344;-60
2021/03/20 19:23:39;;;;;;;22.93;10.82;;;;;;;-2.41;49.87;100816.84;1733871;82;27116;-59
2021/03/20 19:26:06;;;;;;;21.65;10.63;;;;;;;-2.45;49.97;100810.64;1739780;81;25649;-59
2021/03/20 19:28:36;;;;;;;25.75;12.33;;;;;;;-2.46;50.07;100813.50;1733059;82;25550;-59
2021/03/20 19:31:07;;;;;;;29.23;11.33;;;;;;;-2.48;50.29;100810.25;1751206;79;25570;-59
2021/03/20 19:33:35;;;;;;;23.35;10.75;;;;;;;-2.50;50.49;100811.78;1763417;81;25604;-58
2021/03/20 19:36:04;;;;;;;26.93;11.97;;;;;;;-2.51;50.54;100810.66;1763481;81;25691;-58
2021/03/20 19:38:34;;;;;;;20.75;10.43;;;;;;;-2.54;50.24;100802.61;1763962;81;25331;-58
2021/03/20 19:41:02;;;;;;;26.17;11.95;;;;;;;-2.54;50.91;100803.13;1763993;81;25467;-57
2021/03/20 19:43:30;;;;;;;26.70;11.88;;;;;;;-2.55;50.70;100801.52;1763761;81;25460;-58
2021/03/20 19:45:56;;;;;;;27.50;12.75;;;;;;;-2.57;50.78;100799.08;1764051;81;25337;-57
2021/03/20 19:48:24;;;;;;;25.82;11.57;;;;;;;-2.58;50.75;100796.63;1764147;81;25778;-58
2021/03/20 19:50:56;;;;;;;28.23;12.25;;;;;;;-2.61;50.86;100785.94;1763759;81;25277;-59
2021/03/20 19:53:26;;;;;;;29.92;12.95;;;;;;;-2.61;50.49;100790.42;1763417;81;25439;-59
2021/03/20 19:55:55;;;;;;;23.50;10.60;;;;;;;-2.64;50.55;100785.86;1764076;81;25489;-58
2021/03/20 19:58:26;;;;;;;18.10;10.10;;;;;;;-2.65;51.07;100786.86;1764198;81;25701;-58
2021/03/20 20:00:57;;;;;;;22.50;10.88;;;;;;;-2.67;51.32;100784.94;1764107;81;25693;-58
2021/03/20 20:03:23;;;;;;;20.50;10.25;;;;;;;-2.67;51.28;100784.14;1760493;80;25633;-58
2021/03/20 20:05:51;;;;;;;21.95;10.08;;;;;;;-2.70;51.44;100781.38;1758283;81;25508;-59
2021/03/20 20:08:18;;;;;;;20.12;10.28;;;;;;;-2.71;51.66;100782.39;1758427;81;25310;-59
2021/03/20 20:10:46;;;;;;;16.37;8.75;;;;;;;-2.72;51.78;100774.69;1758446;81;25479;-58
2021/03/20 20:13:13;;;;;;;20.08;10.25;;;;;;;-2.73;51.65;100769.88;1758176;81;26580;-58
2021/03/20 20:15:43;;;;;;;20.12;9.78;;;;;;;-2.75;52.29;100761.34;1758300;81;25754;-58
2021/03/20 20:18:16;;;;;;;22.40;10.18;;;;;;;-2.78;52.52;100764.39;1758545;81;25253;-58
2021/03/20 20:20:44;;;;;;;19.02;9.88;;;;;;;-2.77;52.12;100770.52;1758226;81;25381;-59
2021/03/20 20:23:12;;;;;;;17.85;9.43;;;;;;;-2.79;52.16;100762.78;1758613;81;25467;-57
2021/03/20 20:25:39;;;;;;;20.35;9.23;;;;;;;-2.80;52.60;100750.55;1758600;81;25709;-58
2021/03/20 20:28:10;;;;;;;15.98;8.53;;;;;;;-2.79;53.03;100754.84;1758332;81;25610;-58
2021/03/20 20:30:39;;;;;;;22.45;9.83;;;;;;;-2.79;52.53;100747.39;1758584;81;25547;-58
2021/03/20 20:33:06;;;;;;;20.15;10.28;;;;;;;-2.82;52.89;100746.79;1758636;81;25494;-58
2021/03/20 20:35:34;;;;;;;23.45;11.33;;;;;;;-2.84;52.82;100744.06;1758313;81;25325;-58
2021/03/20 20:38:01;;;;;;;22.87;10.43;;;;;;;-2.85;52.98;100742.42;1758659;81;26630;-58
2021/03/20 20:40:28;;;;;;;24.98;11.30;;;;;;;-2.85;53.02;100735.81;1758445;81;25389;-57
2021/03/20 20:43:13;;;;;;;19.07;10.48;;;;;;;-2.87;53.02;100728.07;1758253;81;25436;-58
2021/03/20 20:45:53;;;;;;;23.22;11.18;;;;;;;-2.88;53.33;100735.73;1758603;81;25510;-59